Time;durP1;ratioP1;P1;durP2;ratioP2;P2;SDS_P1;SDS_P2;PMS_P1;PMS_P2;Temp;Humidity;BMP_temperature;BMP_pressure;BME280_temperature;BME280_humidity;BME280_pressure;Samples;Min_cycle;Max_cycle;Signal;HPM_P1;HPM_P2
2021/04/25 00:00:24;;;;;;;10.82;4.63;;;13.10;49.00;;;;;;6186477;23;20389;-49
2021/04/25 00:02:50;;;;;;;10.07;3.83;;;13.10;49.00;;;;;;6186791;23;20283;-49
2021/04/25 00:05:17;;;;;;;9.07;3.67;;;13.10;49.00;;;;;;6187050;23;20090;-50
2021/04/25 00:07:44;;;;;;;11.57;3.63;;;13.10;49.00;;;;;;6186689;23;19997;-49
2021/04/25 00:10:11;;;;;;;13.07;3.95;;;13.10;49.10;;;;;;6185977;23;20019;-49
2021/04/25 00:12:40;;;;;;;12.15;4.32;;;13.10;49.10;;;;;;6187078;23;20005;-49
2021/04/25 00:15:08;;;;;;;14.52;3.80;;;13.10;49.20;;;;;;6186499;23;20425;-49
2021/04/25 00:17:34;;;;;;;10.35;3.70;;;13.10;49.20;;;;;;6186553;23;20002;-49
2021/04/25 00:19:59;;;;;;;9.15;4.05;;;13.10;49.20;;;;;;6186037;23;20035;-50
2021/04/25 00:22:25;;;;;;;9.63;3.90;;;13.10;49.20;;;;;;6186667;23;20346;-49
2021/04/25 00:24:50;;;;;;;7.78;3.58;;;13.10;49.20;;;;;;6186710;23;20009;-49
2021/04/25 00:27:16;;;;;;;10.57;4.07;;;13.00;49.20;;;;;;6186752;23;20005;-49
2021/04/25 00:29:42;;;;;;;9.30;4.18;;;13.00;49.20;;;;;;6185918;23;20316;-49
2021/04/25 00:32:07;;;;;;;13.73;4.10;;;13.00;49.20;;;;;;6186585;23;20003;-49
2021/04/25 00:34:33;;;;;;;7.60;3.47;;;13.00;49.30;;;;;;6186514;23;20408;-49
2021/04/25 00:36:58;;;;;;;7.43;4.22;;;13.00;49.90;;;;;;6186366;23;20084;-49
2021/04/25 00:39:25;;;;;;;7.20;3.42;;;13.00;49.30;;;;;;6186245;23;20005;-49
2021/04/25 00:41:50;;;;;;;7.53;3.72;;;13.00;49.30;;;;;;6186412;23;20007;-49
2021/04/25 00:44:16;;;;;;;9.02;3.63;;;13.00;49.30;;;;;;6186119;23;20084;-49
2021/04/25 00:46:42;;;;;;;11.68;4.20;;;13.00;49.30;;;;;;6186483;23;20064;-49
2021/04/25 00:49:07;;;;;;;12.82;3.78;;;13.00;49.40;;;;;;6186028;23;20009;-49
2021/04/25 00:51:33;;;;;;;9.65;4.32;;;13.00;49.40;;;;;;6186632;23;20397;-49
2021/04/25 00:54:01;;;;;;;10.05;4.30;;;13.00;49.40;;;;;;6186361;23;20037;-49
2021/04/25 00:56:27;;;;;;;11.00;4.78;;;13.00;49.50;;;;;;6185940;23;20440;-49
2021/04/25 00:58:53;;;;;;;9.77;3.97;;;13.00;49.50;;;;;;6185884;23;20031;-49
2021/04/25 01:01:19;;;;;;;7.18;3.70;;;13.00;49.50;;;;;;6186640;23;20389;-49
2021/04/25 01:03:44;;;;;;;9.43;3.63;;;13.00;49.50;;;;;;6186333;23;20005;-49
2021/04/25 01:06:10;;;;;;;7.57;3.88;;;13.00;49.60;;;;;;6186443;23;20013;-49
2021/04/25 01:08:36;;;;;;;10.70;3.70;;;13.00;49.60;;;;;;6185562;23;20031;-49
2021/04/25 01:11:02;;;;;;;10.13;3.92;;;13.00;49.60;;;;;;6186425;23;20285;-49
2021/04/25 01:13:28;;;;;;;8.10;4.53;;;12.90;49.60;;;;;;6186482;23;20438;-49
2021/04/25 01:15:53;;;;;;;7.05;3.90;;;12.90;49.60;;;;;;6186023;23;20033;-49
2021/04/25 01:18:19;;;;;;;7.57;3.47;;;12.90;49.60;;;;;;6185565;23;20445;-49
2021/04/25 01:20:45;;;;;;;7.75;3.10;;;13.00;49.70;;;;;;6185725;23;20012;-49
2021/04/25 01:23:11;;;;;;;13.07;3.30;;;12.90;49.70;;;;;;6186329;23;20084;-49
2021/04/25 01:25:37;;;;;;;17.63;3.70;;;12.90;49.70;;;;;;6186163;23;20024;-49
2021/04/25 01:28:03;;;;;;;7.70;3.13;;;12.90;49.70;;;;;;6186090;23;20409;-49
2021/04/25 01:30:31;;;;;;;9.45;4.20;;;12.90;49.70;;;;;;6185620;23;20017;-49
2021/04/25 01:32:57;;;;;;;9.75;3.55;;;12.90;49.80;;;;;;6186308;23;20005;-49
2021/04/25 01:35:24;;;;;;;11.32;3.72;;;12.90;49.80;;;;;;6185802;23;20059;-49
2021/04/25 01:37:51;;;;;;;14.73;3.38;;;12.90;49.80;;;;;;6186256;23;20005;-49
2021/04/25 01:40:18;;;;;;;8.00;3.33;;;12.90;49.80;;;;;;6185672;23;20000;-49
2021/04/25 01:42:44;;;;;;;5.97;3.30;;;12.90;49.80;;;;;;6185790;23;20027;-49
2021/04/25 01:45:16;;;;;;;10.60;3.75;;;12.90;49.90;;;;;;6185497;23;20009;-49
2021/04/25 01:47:53;;;;;;;7.93;3.40;;;12.90;49.90;;;;;;6186157;23;20012;-49
2021/04/25 01:50:20;;;;;;;11.50;3.50;;;12.90;49.90;;;;;;6185163;23;20009;-49
2021/04/25 01:52:46;;;;;;;8.05;3.40;;;12.90;49.90;;;;;;6185691;23;20398;-49
2021/04/25 01:55:12;;;;;;;6.93;2.97;;;12.90;50.00;;;;;;6185529;23;20027;-49
2021/04/25 01:57:38;;;;;;;8.65;3.70;;;12.90;50.00;;;;;;6185644;23;20005;-49
2021/04/25 02:00:10;;;;;;;10.38;3.75;;;12.80;49.90;;;;;;6184857;23;20012;-49
2021/04/25 02:02:36;;;;;;;9.57;3.35;;;12.80;50.00;;;;;;6185521;23;20058;-49
2021/04/25 02:05:02;;;;;;;11.73;4.38;;;12.80;50.00;;;;;;6185810;23;20012;-49
2021/04/25 02:07:27;;;;;;;9.85;3.28;;;12.80;50.00;;;;;;6186029;23;20025;-49
2021/04/25 02:09:54;;;;;;;12.43;3.90;;;12.80;50.00;;;;;;6184731;23;20431;-49
2021/04/25 02:12:20;;;;;;;10.07;3.80;;;12.90;50.10;;;;;;6186086;23;20001;-49
2021/04/25 02:14:46;;;;;;;9.18;3.45;;;12.80;50.10;;;;;;6185871;23;20013;-49
2021/04/25 02:17:12;;;;;;;7.00;3.60;;;12.80;50.10;;;;;;6185953;23;20004;-49
2021/04/25 02:19:38;;;;;;;6.28;3.70;;;12.80;50.10;;;;;;6185043;23;20376;-50
2021/04/25 02:22:04;;;;;;;8.43;3.30;;;12.80;50.10;;;;;;6186112;23;20081;-49
2021/04/25 02:24:30;;;;;;;8.45;4.10;;;12.80;50.20;;;;;;6185221;23;20016;-49
2021/04/25 02:26:56;;;;;;;7.68;3.35;;;12.80;50.20;;;;;;6186103;23;20031;-49
2021/04/25 02:29:22;;;;;;;12.52;3.63;;;12.80;50.20;;;;;;6185405;23;20020;-49
2021/04/25 02:31:47;;;;;;;7.28;3.72;;;12.80;50.20;;;;;;6185436;23;20076;-49
2021/04/25 02:34:13;;;;;;;8.48;3.47;;;12.80;50.20;;;;;;6185708;23;20012;-49
2021/04/25 02:36:40;;;;;;;9.45;4.22;;;12.80;50.30;;;;;;6185271;23;20052;-49
2021/04/25 02:39:06;;;;;;;9.95;3.75;;;12.80;50.30;;;;;;6181329;23;20016;-49
2021/04/25 02:41:32;;;;;;;12.23;3.70;;;12.70;50.30;;;;;;6185310;23;19997;-49
2021/04/25 02:43:57;;;;;;;7.25;3.75;;;12.70;50.30;;;;;;6185439;23;20005;-49
2021/04/25 02:46:23;;;;;;;4.82;3.17;;;12.70;50.30;;;;;;6185784;23;20136;-49
2021/04/25 02:48:49;;;;;;;7.25;3.75;;;12.70;50.30;;;;;;6185013;23;20013;-49
2021/04/25 02:51:14;;;;;;;14.65;3.72;;;12.70;50.40;;;;;;6185847;23;20005;-49
2021/04/25 02:53:40;;;;;;;5.80;3.40;;;12.70;50.40;;;;;;6185609;23;20012;-49
2021/04/25 02:56:05;;;;;;;11.60;3.28;;;12.70;50.40;;;;;;6185218;23;20436;-49
2021/04/25 02:58:31;;;;;;;9.05;4.18;;;12.70;50.40;;;;;;6185279;23;20047;-49
2021/04/25 03:00:57;;;;;;;10.68;3.45;;;12.70;50.50;;;;;;6185738;23;19997;-49
2021/04/25 03:03:24;;;;;;;11.15;3.70;;;12.70;50.50;;;;;;6185477;23;20005;-49
2021/04/25 03:05:53;;;;;;;10.13;3.55;;;12.70;50.50;;;;;;6185376;23;20414;-49
2021/04/25 03:08:19;;;;;;;9.18;3.33;;;12.70;50.50;;;;;;6185233;23;20439;-49
2021/04/25 03:10:45;;;;;;;13.43;3.65;;;12.70;50.60;;;;;;6185201;23;20016;-49
2021/04/25 03:13:10;;;;;;;8.15;3.15;;;12.70;50.60;;;;;;6185153;23;20039;-49
2021/04/25 03:15:36;;;;;;;12.00;4.07;;;12.70;50.60;;;;;;6185708;23;20008;-49
2021/04/25 03:18:02;;;;;;;9.15;3.53;;;12.70;50.60;;;;;;6185123;23;20005;-49
2021/04/25 03:20:28;;;;;;;8.25;3.72;;;12.70;50.60;;;;;;6185766;23;20009;-49
2021/04/25 03:22:53;;;;;;;9.88;3.63;;;12.70;50.60;;;;;;6186897;23;20004;-49
2021/04/25 03:25:19;;;;;;;7.63;3.53;;;12.70;50.60;;;;;;6187434;23;20005;-49
2021/04/25 03:27:45;;;;;;;8.20;3.67;;;12.60;50.60;;;;;;6187493;23;20024;-49
2021/04/25 03:30:13;;;;;;;8.60;3.55;;;12.70;50.70;;;;;;6186389;23;20013;-49
2021/04/25 03:32:39;;;;;;;7.50;3.40;;;12.60;50.70;;;;;;6187001;23;20081;-49
2021/04/25 03:35:07;;;;;;;12.20;4.28;;;12.60;50.70;;;;;;6187175;23;20009;-49
2021/04/25 03:37:32;;;;;;;6.88;3.72;;;12.60;50.70;;;;;;6187051;23;20005;-49
2021/04/25 03:39:58;;;;;;;11.40;3.83;;;12.60;50.70;;;;;;6186548;23;20023;-49
2021/04/25 03:42:24;;;;;;;8.00;3.63;;;12.60;50.70;;;;;;6186952;23;20369;-49
2021/04/25 03:44:49;;;;;;;8.20;3.97;;;12.60;50.80;;;;;;6186735;23;20001;-49
2021/04/25 03:47:15;;;;;;;16.95;4.25;;;12.60;50.80;;;;;;6187095;23;20001;-49
2021/04/25 03:49:41;;;;;;;9.75;4.47;;;12.60;50.80;;;;;;6186292;23;20360;-49
2021/04/25 03:52:07;;;;;;;14.98;3.85;;;12.60;50.80;;;;;;6186839;23;20011;-49
2021/04/25 03:54:33;;;;;;;15.10;3.90;;;12.60;50.90;;;;;;6186673;23;20012;-49
2021/04/25 03:56:59;;;;;;;10.05;4.22;;;12.60;50.90;;;;;;6187137;23;20001;-49
2021/04/25 03:59:25;;;;;;;9.18;4.20;;;12.60;50.90;;;;;;6186698;23;20009;-49
2021/04/25 04:01:51;;;;;;;12.30;4.03;;;12.60;50.90;;;;;;6186961;23;20084;-49
2021/04/25 04:04:17;;;;;;;10.18;4.35;;;12.60;51.00;;;;;;6186852;23;19997;-49
2021/04/25 04:06:42;;;;;;;9.45;4.30;;;12.60;51.00;;;;;;6186715;23;20393;-49
2021/04/25 04:09:08;;;;;;;11.10;4.25;;;12.60;51.00;;;;;;6186506;23;20087;-49
2021/04/25 04:11:34;;;;;;;14.00;4.57;;;12.60;51.00;;;;;;6187040;23;20052;-49
2021/04/25 04:13:59;;;;;;;7.53;4.00;;;12.60;51.00;;;;;;6186904;23;20489;-49
2021/04/25 04:16:25;;;;;;;13.18;4.05;;;12.60;51.10;;;;;;6186811;23;20001;-49
2021/04/25 04:18:51;;;;;;;9.57;4.55;;;12.60;51.10;;;;;;6185994;23;20001;-50
2021/04/25 04:21:17;;;;;;;12.30;3.80;;;12.60;51.10;;;;;;6186773;23;20009;-49
2021/04/25 04:23:42;;;;;;;10.75;4.72;;;12.60;51.10;;;;;;6186822;23;20448;-49
2021/04/25 04:26:08;;;;;;;9.48;3.78;;;12.60;51.10;;;;;;6186435;23;20390;-49
2021/04/25 04:28:34;;;;;;;10.60;4.03;;;12.60;51.20;;;;;;6186253;23;20005;-49
2021/04/25 04:30:59;;;;;;;9.35;4.15;;;12.60;51.20;;;;;;6186782;23;20449;-49
2021/04/25 04:33:25;;;;;;;9.93;4.47;;;12.60;51.20;;;;;;6185820;23;20005;-49
2021/04/25 04:35:51;;;;;;;12.55;4.40;;;12.60;51.20;;;;;;6186143;23;20005;-49
2021/04/25 04:38:16;;;;;;;9.32;3.90;;;12.60;51.20;;;;;;6186224;23;20001;-49
2021/04/25 04:40:42;;;;;;;9.98;4.20;;;12.50;51.20;;;;;;6185969;23;20005;-49
2021/04/25 04:43:08;;;;;;;11.90;4.68;;;12.60;51.20;;;;;;6186224;23;20071;-49
2021/04/25 04:45:33;;;;;;;13.55;4.80;;;12.60;51.20;;;;;;6186136;23;20050;-49
2021/04/25 04:47:59;;;;;;;8.85;3.92;;;12.60;51.20;;;;;;6186332;23;20023;-49
2021/04/25 04:50:24;;;;;;;13.45;4.22;;;12.60;51.90;;;;;;6185560;23;20009;-49
2021/04/25 04:52:50;;;;;;;15.65;4.60;;;12.60;51.30;;;;;;6185918;23;20001;-50
2021/04/25 04:55:17;;;;;;;11.93;4.95;;;12.60;51.30;;;;;;6185799;23;20020;-49
2021/04/25 04:57:43;;;;;;;12.27;4.40;;;12.60;51.30;;;;;;6185775;23;20055;-49
2021/04/25 05:00:10;;;;;;;10.43;4.25;;;12.60;51.30;;;;;;6185358;23;20032;-49
2021/04/25 05:02:35;;;;;;;11.10;4.05;;;12.60;51.30;;;;;;6185937;23;20421;-49
2021/04/25 05:05:01;;;;;;;11.35;3.97;;;12.60;51.30;;;;;;6185353;23;20051;-49
2021/04/25 05:07:27;;;;;;;8.05;3.95;;;12.60;51.30;;;;;;6185943;23;20072;-49
2021/04/25 05:09:53;;;;;;;9.38;4.10;;;12.60;51.30;;;;;;6185770;23;20278;-49
2021/04/25 05:12:18;;;;;;;10.13;3.90;;;12.60;51.40;;;;;;6186377;23;20405;-49
2021/04/25 05:14:44;;;;;;;9.57;4.47;;;12.60;51.30;;;;;;6186106;23;20330;-49
2021/04/25 05:17:10;;;;;;;9.88;4.53;;;12.60;51.30;;;;;;6186391;23;20009;-49
2021/04/25 05:19:35;;;;;;;14.05;5.32;;;12.60;51.30;;;;;;6185168;23;20020;-49
2021/04/25 05:22:01;;;;;;;8.50;4.40;;;12.70;51.30;;;;;;6186236;23;20028;-49
2021/04/25 05:24:26;;;;;;;12.45;5.00;;;12.70;51.30;;;;;;6186223;23;20087;-49
2021/04/25 05:26:52;;;;;;;14.73;5.20;;;12.70;51.20;;;;;;6185996;23;20314;-49
2021/04/25 05:29:18;;;;;;;12.23;4.80;;;12.70;51.20;;;;;;6185238;23;20009;-49
2021/04/25 05:31:44;;;;;;;10.90;5.18;;;12.70;51.20;;;;;;6186312;23;20001;-49
2021/04/25 05:34:11;;;;;;;11.25;5.35;;;12.80;51.80;;;;;;6185753;23;20036;-49
2021/04/25 05:36:37;;;;;;;16.38;5.40;;;12.80;51.20;;;;;;6186094;23;20001;-49
2021/04/25 05:39:04;;;;;;;15.70;5.25;;;12.80;51.10;;;;;;6185825;23;20013;-49
2021/04/25 05:41:29;;;;;;;11.80;4.72;;;12.80;51.10;;;;;;6185856;23;20012;-49
2021/04/25 05:43:55;;;;;;;13.55;5.18;;;12.80;51.20;;;;;;6185657;23;20009;-49
2021/04/25 05:46:21;;;;;;;16.27;5.65;;;12.90;51.10;;;;;;6185394;23;20005;-49
2021/04/25 05:48:47;;;;;;;11.05;5.03;;;12.90;51.20;;;;;;6185512;23;20047;-49
2021/04/25 05:51:13;;;;;;;19.23;6.68;;;12.90;51.20;;;;;;6185923;23;20059;-48
2021/04/25 05:53:38;;;;;;;17.65;5.80;;;12.90;51.20;;;;;;6186186;23;20009;-49
2021/04/25 05:56:04;;;;;;;22.63;6.90;;;13.00;51.30;;;;;;6185572;23;20005;-49
2021/04/25 05:58:30;;;;;;;13.70;5.95;;;13.00;51.30;;;;;;6185295;23;20001;-49
2021/04/25 06:00:56;;;;;;;13.30;6.28;;;13.00;51.30;;;;;;6185898;23;20012;-49
2021/04/25 06:03:21;;;;;;;14.25;6.25;;;13.00;51.30;;;;;;6185915;23;20324;-49
2021/04/25 06:05:47;;;;;;;12.32;6.30;;;13.10;51.30;;;;;;6185545;23;20009;-49
2021/04/25 06:08:13;;;;;;;13.15;7.05;;;13.10;51.20;;;;;;6185751;23;20001;-49
2021/04/25 06:10:38;;;;;;;13.35;5.97;;;13.10;51.20;;;;;;6185556;23;20076;-49
2021/04/25 06:13:04;;;;;;;15.20;6.13;;;13.20;51.20;;;;;;6185942;23;20024;-49
2021/04/25 06:15:30;;;;;;;20.15;6.70;;;13.20;51.20;;;;;;6185908;23;20048;-49
2021/04/25 06:18:00;;;;;;;15.38;6.78;;;13.20;51.20;;;;;;6185760;23;20005;-49
2021/04/25 06:20:26;;;;;;;16.15;7.38;;;13.30;51.20;;;;;;6184918;23;20405;-49
2021/04/25 06:22:51;;;;;;;18.58;8.68;;;13.30;51.30;;;;;;6185731;23;20012;-49
2021/04/25 06:25:18;;;;;;;11.90;6.72;;;13.30;51.20;;;;;;6185731;23;19997;-49
2021/04/25 06:27:44;;;;;;;17.23;7.47;;;13.30;51.20;;;;;;6185536;23;20001;-49
2021/04/25 06:30:11;;;;;;;16.02;6.60;;;13.40;51.20;;;;;;6184918;23;20017;-49
2021/04/25 06:32:37;;;;;;;15.48;7.65;;;13.40;51.20;;;;;;6185583;23;20024;-48
2021/04/25 06:35:03;;;;;;;15.73;7.82;;;13.40;51.10;;;;;;6185369;23;20009;-48
2021/04/25 06:37:29;;;;;;;19.85;8.82;;;13.50;51.20;;;;;;6185492;23;20001;-49
2021/04/25 06:39:55;;;;;;;16.88;7.90;;;13.50;51.10;;;;;;6185302;23;20076;-49
2021/04/25 06:42:20;;;;;;;21.75;7.70;;;13.60;51.20;;;;;;6185109;23;20271;-49
2021/04/25 06:44:46;;;;;;;13.90;8.48;;;13.60;51.20;;;;;;6185612;23;20025;-49
2021/04/25 06:47:11;;;;;;;22.20;8.25;;;13.60;51.10;;;;;;6185085;23;20072;-49
2021/04/25 06:49:38;;;;;;;14.05;7.35;;;13.60;51.00;;;;;;6184795;23;20017;-49
2021/04/25 06:52:04;;;;;;;17.55;7.90;;;13.70;51.10;;;;;;6185641;23;19997;-49
2021/04/25 06:54:29;;;;;;;21.20;8.68;;;13.70;51.00;;;;;;6185819;23;20001;-49
2021/04/25 06:56:55;;;;;;;23.20;8.88;;;13.70;51.00;;;;;;6186796;23;20001;-49
2021/04/25 06:59:20;;;;;;;15.63;8.77;;;13.80;51.00;;;;;;6187374;23;20012;-49
2021/04/25 07:01:46;;;;;;;24.23;8.30;;;13.80;51.00;;;;;;6210509;23;20101;-49
2021/04/25 07:04:13;;;;;;;19.58;8.77;;;13.80;51.00;;;;;;6187652;23;20318;-49
2021/04/25 07:06:38;;;;;;;14.75;7.25;;;13.90;51.00;;;;;;6187344;23;20028;-49
2021/04/25 07:09:04;;;;;;;23.30;8.95;;;13.90;51.00;;;;;;6187163;23;20009;-49
2021/04/25 07:11:30;;;;;;;16.25;8.25;;;13.90;51.00;;;;;;6187158;23;20313;-49
2021/04/25 07:13:55;;;;;;;17.33;8.63;;;13.90;51.00;;;;;;6187397;23;20032;-49
2021/04/25 07:16:21;;;;;;;25.67;10.45;;;14.00;51.00;;;;;;6187055;23;20377;-49
2021/04/25 07:18:47;;;;;;;22.65;8.38;;;14.00;51.00;;;;;;6186888;23;20001;-50
2021/04/25 07:21:12;;;;;;;17.25;8.00;;;14.00;51.00;;;;;;6187425;23;20099;-49
2021/04/25 07:23:38;;;;;;;21.65;9.90;;;14.00;51.00;;;;;;6187135;23;20005;-49
2021/04/25 07:26:04;;;;;;;17.65;8.88;;;14.10;51.00;;;;;;6186825;23;20012;-49
2021/04/25 07:28:29;;;;;;;23.33;11.40;;;14.10;50.90;;;;;;6186890;23;20031;-49
2021/04/25 07:30:55;;;;;;;23.55;10.20;;;14.10;50.90;;;;;;6186282;23;20405;-49
2021/04/25 07:33:21;;;;;;;20.52;10.65;;;14.20;50.90;;;;;;6187239;23;20009;-49
2021/04/25 07:35:47;;;;;;;27.02;12.38;;;14.20;50.90;;;;;;6187213;23;20044;-49
2021/04/25 07:38:13;;;;;;;26.88;10.98;;;14.20;51.50;;;;;;6186681;23;20036;-50
2021/04/25 07:40:40;;;;;;;18.63;11.48;;;14.20;50.80;;;;;;6186534;23;20001;-49
2021/04/25 07:43:06;;;;;;;27.75;11.43;;;14.20;50.80;;;;;;6187342;23;20048;-49
2021/04/25 07:45:32;;;;;;;24.05;11.65;;;14.20;50.80;;;;;;6186604;23;20306;-49
2021/04/25 07:47:58;;;;;;;26.45;12.75;;;14.30;50.80;;;;;;6186670;23;20001;-50
2021/04/25 07:50:24;;;;;;;24.25;12.38;;;14.30;50.80;;;;;;6186478;23;20084;-49
2021/04/25 07:52:50;;;;;;;21.25;12.23;;;14.30;50.80;;;;;;6186842;23;20001;-49
2021/04/25 07:55:17;;;;;;;24.70;12.85;;;14.30;50.80;;;;;;6187292;23;20009;-49
2021/04/25 07:57:42;;;;;;;26.92;12.57;;;14.30;50.80;;;;;;6187019;23;20005;-49
2021/04/25 08:00:11;;;;;;;28.38;13.88;;;14.30;50.80;;;;;;6185470;23;20009;-49
2021/04/25 08:02:37;;;;;;;29.50;13.88;;;14.30;50.80;;;;;;6186234;23;20028;-49
2021/04/25 08:05:04;;;;;;;28.23;12.25;;;14.40;51.00;;;;;;6187078;23;20008;-49
2021/04/25 08:07:30;;;;;;;31.70;12.93;;;14.40;50.90;;;;;;6186372;23;20001;-48
2021/04/25 08:09:55;;;;;;;24.58;14.20;;;14.40;50.90;;;;;;6186593;23;20092;-49
2021/04/25 08:12:21;;;;;;;31.95;14.48;;;14.40;51.00;;;;;;6186345;23;20341;-49
2021/04/25 08:14:47;;;;;;;27.85;14.68;;;14.40;51.10;;;;;;6186706;23;20067;-49
2021/04/25 08:17:12;;;;;;;33.78;14.77;;;14.40;51.70;;;;;;6186358;23;20005;-49
2021/04/25 08:19:38;;;;;;;23.73;11.95;;;14.40;51.10;;;;;;6186353;23;20044;-49
2021/04/25 08:22:06;;;;;;;25.85;13.63;;;14.40;51.20;;;;;;6186691;23;19997;-49
2021/04/25 08:24:32;;;;;;;31.63;14.13;;;14.40;51.20;;;;;;6186558;23;20290;-49
2021/04/25 08:26:58;;;;;;;31.02;15.48;;;14.40;51.20;;;;;;6186602;23;20337;-51
2021/04/25 08:29:24;;;;;;;29.27;15.23;;;14.40;51.20;;;;;;6186401;23;20068;-58
2021/04/25 08:31:49;;;;;;;29.77;13.75;;;14.40;51.00;;;;;;6186348;23;19997;-51
2021/04/25 08:34:15;;;;;;;33.80;16.92;;;14.30;51.00;;;;;;6186786;23;20009;-51
2021/04/25 08:36:41;;;;;;;29.52;14.68;;;14.20;51.00;;;;;;6185014;23;20005;-51
2021/04/25 08:39:06;;;;;;;35.83;13.82;;;14.30;50.80;;;;;;6183817;23;20012;-51
2021/04/25 08:41:32;;;;;;;31.10;15.70;;;14.20;50.90;;;;;;6184951;23;20009;-51
2021/04/25 08:44:01;;;;;;;40.72;16.35;;;14.20;50.80;;;;;;6185114;23;20016;-51
2021/04/25 08:46:28;;;;;;;30.92;15.70;;;14.30;50.90;;;;;;6184813;23;19997;-51
2021/04/25 08:48:55;;;;;;;30.55;14.55;;;14.30;50.80;;;;;;6184149;23;20009;-51
2021/04/25 08:51:21;;;;;;;37.17;16.95;;;14.30;50.50;;;;;;6185520;23;20376;-51
2021/04/25 08:53:48;;;;;;;24.52;13.90;;;14.30;50.70;;;;;;6185762;23;20289;-51
2021/04/25 08:56:15;;;;;;;29.95;16.17;;;14.30;50.60;;;;;;6186298;23;20001;-51
2021/04/25 08:58:44;;;;;;;27.23;14.52;;;14.30;50.90;;;;;;6186044;23;19997;-51
2021/04/25 09:01:10;;;;;;;26.02;12.65;;;14.10;50.60;;;;;;6186619;23;20032;-51
2021/04/25 09:03:36;;;;;;;25.63;12.48;;;14.20;50.80;;;;;;6185936;23;20005;-51
2021/04/25 09:06:05;;;;;;;36.33;18.00;;;14.20;51.10;;;;;;6186141;23;20047;-51
2021/04/25 09:08:51;;;;;;;38.55;16.35;;;14.30;51.30;;;;;;6185753;23;20001;-51
2021/04/25 09:11:31;;;;;;;36.42;17.35;;;14.20;51.00;;;;;;6186468;23;20009;-51
2021/04/25 09:14:23;;;;;;;35.40;15.82;;;14.20;51.10;;;;;;6185839;23;20001;-51
2021/04/25 09:16:54;;;;;;;28.67;14.60;;;14.10;50.80;;;;;;6186248;23;20028;-51
2021/04/25 09:19:21;;;;;;;25.48;12.10;;;14.10;51.00;;;;;;6185056;23;20053;-51
2021/04/25 09:22:02;;;;;;;29.77;13.30;;;14.20;50.90;;;;;;6185940;23;20001;-51
2021/04/25 09:24:29;;;;;;;30.02;15.25;;;14.20;50.90;;;;;;6185850;23;20293;-51
2021/04/25 09:26:56;;;;;;;34.45;18.10;;;14.20;50.80;;;;;;6185700;23;20028;-51
2021/04/25 09:29:26;;;;;;;33.33;15.85;;;14.30;51.00;;;;;;6185363;23;20016;-51
2021/04/25 09:31:55;;;;;;;;;;;14.30;50.40;;;;;;6187059;23;20318;-51
2021/04/25 09:34:28;;;;;;;21.85;10.70;;;14.20;50.50;;;;;;6186008;23;19907;-51
2021/04/25 09:36:55;;;;;;;33.20;15.65;;;14.30;50.80;;;;;;6186132;23;20005;-51
2021/04/25 09:39:22;;;;;;;32.00;14.48;;;14.30;51.00;;;;;;6185700;23;20080;-51
2021/04/25 09:41:49;;;;;;;27.73;14.18;;;14.40;50.80;;;;;;6186185;23;20009;-51
2021/04/25 09:44:32;;;;;;;30.00;12.05;;;14.40;50.80;;;;;;6185827;23;20021;-51
2021/04/25 09:47:00;;;;;;;30.73;13.45;;;14.40;50.50;;;;;;6186039;23;20012;-51
2021/04/25 09:49:49;;;;;;;26.55;10.30;;;14.30;50.70;;;;;;6185518;23;20092;-52
2021/04/25 09:52:27;;;;;;;22.88;9.13;;;14.40;50.70;;;;;;6185981;23;20005;-52
2021/04/25 09:55:28;;;;;;;23.73;8.32;;;14.40;51.00;;;;;;6185990;23;20008;-51
2021/04/25 09:58:05;;;;;;;25.33;10.60;;;14.50;51.10;;;;;;6185961;23;20052;-51
2021/04/25 10:00:42;;;;;;;26.20;10.43;;;14.50;50.70;;;;;;6185662;23;20076;-51
2021/04/25 10:03:11;;;;;;;23.23;10.93;;;14.50;50.90;;;;;;6185385;23;20464;-51
2021/04/25 10:05:39;;;;;;;21.17;10.52;;;14.60;50.40;;;;;;6186035;23;20005;-51
2021/04/25 10:08:05;;;;;;;20.77;10.23;;;14.50;50.30;;;;;;6185556;23;19997;-51
2021/04/25 10:10:31;;;;;;;17.73;9.25;;;14.60;50.80;;;;;;6185311;23;20060;-51
2021/04/25 10:12:58;;;;;;;13.88;7.15;;;14.60;50.50;;;;;;6185498;23;20080;-51
2021/04/25 10:15:24;;;;;;;29.75;9.23;;;14.60;50.40;;;;;;6185767;23;20005;-51
2021/04/25 10:17:51;;;;;;;23.20;8.88;;;14.60;50.30;;;;;;6185847;23;20336;-51
2021/04/25 10:20:20;;;;;;;16.52;8.50;;;14.50;50.30;;;;;;6185300;23;20017;-51
2021/04/25 10:22:48;;;;;;;18.88;8.57;;;14.50;50.30;;;;;;6185390;23;20001;-51
2021/04/25 10:25:29;;;;;;;18.98;8.90;;;14.50;50.50;;;;;;6185841;23;20025;-51
2021/04/25 10:28:24;;;;;;;12.88;6.70;;;14.50;50.40;;;;;;6185574;23;20011;-51
2021/04/25 10:30:50;;;;;;;13.30;6.47;;;14.60;49.80;;;;;;6178999;23;20040;-50
2021/04/25 10:33:15;;;;;;;19.80;9.65;;;14.60;50.00;;;;;;6187353;23;20001;-51
2021/04/25 10:35:56;;;;;;;16.42;7.43;;;14.60;49.70;;;;;;6187451;23;20001;-51
2021/04/25 10:38:35;;;;;;;17.38;7.43;;;14.60;49.70;;;;;;6187277;23;20040;-51
2021/04/25 10:41:26;;;;;;;15.20;7.72;;;14.70;49.40;;;;;;6188097;23;20060;-51
2021/04/25 10:44:00;;;;;;;19.05;8.60;;;14.80;49.30;;;;;;6180178;23;20001;-50
2021/04/25 10:46:46;;;;;;;17.90;7.40;;;14.70;49.30;;;;;;6187498;23;20005;-51
2021/04/25 10:49:32;;;;;;;19.83;8.52;;;14.70;50.30;;;;;;6186783;23;20087;-51
2021/04/25 10:52:23;;;;;;;13.75;6.00;;;14.80;49.40;;;;;;6187665;23;20008;-51
2021/04/25 10:55:11;;;;;;;16.65;6.95;;;14.80;50.10;;;;;;6187716;23;20027;-51
2021/04/25 10:57:55;;;;;;;12.95;7.15;;;14.80;50.00;;;;;;6187796;23;20004;-51
2021/04/25 11:00:42;;;;;;;12.13;5.40;;;14.90;49.80;;;;;;6186916;23;20032;-51
2021/04/25 11:03:20;;;;;;;13.63;6.03;;;14.90;49.60;;;;;;6187272;23;20309;-51
2021/04/25 11:05:48;;;;;;;15.45;7.03;;;15.00;50.00;;;;;;6187677;23;20080;-51
2021/04/25 11:08:14;;;;;;;13.48;5.05;;;14.90;49.20;;;;;;6187355;23;20093;-51
2021/04/25 11:10:55;;;;;;;15.50;7.03;;;15.00;49.10;;;;;;6186927;23;20040;-50
2021/04/25 11:13:50;;;;;;;17.67;7.32;;;15.00;49.40;;;;;;6187476;23;20008;-50
2021/04/25 11:19:06;;;;;;;16.05;6.22;;;14.90;48.70;;;;;;6186663;23;20088;-50
2021/04/25 11:21:40;;;;;;;18.30;4.97;;;14.90;48.90;;;;;;6187535;23;20024;-58
2021/04/25 11:24:08;;;;;;;19.48;6.50;;;14.90;49.50;;;;;;6186958;23;20081;-56
2021/04/25 11:26:34;;;;;;;17.00;7.53;;;15.00;49.50;;;;;;6187296;23;20076;-57
2021/04/25 11:29:10;;;;;;;14.75;6.70;;;15.10;48.40;;;;;;6186595;23;20041;-56
2021/04/25 11:31:45;;;;;;;14.70;6.22;;;15.10;48.30;;;;;;6210670;23;20005;-56
2021/04/25 11:34:26;;;;;;;10.68;4.78;;;14.90;48.20;;;;;;6210538;23;20016;-56
2021/04/25 11:36:55;;;;;;;10.15;4.43;;;14.90;48.60;;;;;;6210237;23;20033;-56
2021/04/25 11:39:23;;;;;;;14.27;7.10;;;14.90;49.10;;;;;;6186631;23;20313;-59
2021/04/25 11:41:50;;;;;;;16.00;7.13;;;15.10;49.60;;;;;;6185185;23;20006;-58
2021/04/25 11:44:27;;;;;;;16.67;6.70;;;15.10;49.20;;;;;;6186842;23;20409;-58
2021/04/25 11:46:54;;;;;;;13.80;5.97;;;15.10;49.10;;;;;;6186976;23;20005;-57
2021/04/25 11:49:37;;;;;;;16.80;6.10;;;15.10;48.90;;;;;;6186037;23;20377;-57
2021/04/25 11:52:09;;;;;;;18.95;6.85;;;15.00;48.50;;;;;;6186943;23;20483;-57
2021/04/25 11:54:36;;;;;;;15.25;6.75;;;15.00;48.30;;;;;;6184646;23;20045;-57
2021/04/25 11:57:29;;;;;;;12.07;6.13;;;15.00;48.60;;;;;;6210189;23;20012;-58
2021/04/25 12:00:04;;;;;;;11.23;5.70;;;15.00;49.00;;;;;;6184007;23;20273;-59
2021/04/25 12:02:32;;;;;;;12.35;5.40;;;15.00;49.40;;;;;;6186678;23;20005;-59
2021/04/25 12:05:08;;;;;;;10.27;5.70;;;15.20;48.80;;;;;;6186593;23;20047;-59
2021/04/25 12:07:41;;;;;;;11.20;5.63;;;15.10;48.40;;;;;;6210298;23;20012;-59
2021/04/25 12:10:11;;;;;;;17.63;7.00;;;15.10;48.60;;;;;;6186130;23;20474;-59
2021/04/25 12:13:16;;;;;;;13.15;5.00;;;15.10;48.70;;;;;;6186556;23;20043;-59
2021/04/25 12:15:51;;;;;;;13.00;5.18;;;15.10;48.50;;;;;;6178561;23;20005;-60
2021/04/25 12:18:22;;;;;;;13.05;5.07;;;15.10;47.80;;;;;;6186603;23;19997;-60
2021/04/25 12:21:02;;;;;;;8.13;4.03;;;15.00;47.20;;;;;;6186498;23;20013;-52
2021/04/25 12:23:30;;;;;;;12.05;4.60;;;14.90;47.20;;;;;;6187011;23;20001;-58
2021/04/25 12:25:56;;;;;;;11.68;4.10;;;14.90;45.60;;;;;;6209915;23;20021;-59
2021/04/25 12:28:45;;;;;;;9.15;4.88;;;14.80;45.80;;;;;;6186437;23;20001;-58
2021/04/25 12:31:16;;;;;;;7.32;4.07;;;14.80;46.60;;;;;;6184842;23;20036;-59
2021/04/25 12:33:54;;;;;;;7.85;4.28;;;14.90;45.90;;;;;;6186316;23;20001;-54
2021/04/25 12:36:29;;;;;;;8.95;4.63;;;14.90;45.60;;;;;;6186736;23;20008;-53
2021/04/25 12:38:56;;;;;;;6.65;3.80;;;15.10;45.50;;;;;;6186491;23;20007;-54
2021/04/25 12:41:23;;;;;;;4.95;3.10;;;15.00;45.00;;;;;;6186202;23;20004;-53
2021/04/25 12:43:49;;;;;;;7.00;3.60;;;15.10;44.50;;;;;;6186680;23;20288;-54
2021/04/25 12:46:21;;;;;;;6.57;3.45;;;15.10;44.00;;;;;;6186147;23;20417;-53